createdAt,value
2023-01-25T00:00:31.411Z,15.75
2023-01-25T00:02:58.216Z,14.73
2023-01-25T00:05:25.052Z,15.10
2023-01-25T00:07:51.958Z,14.67
2023-01-25T00:10:19.223Z,13.88
2023-01-25T00:12:45.990Z,14.27
2023-01-25T00:15:12.810Z,13.85
2023-01-25T00:17:39.559Z,13.80
2023-01-25T00:20:07.294Z,14.47
2023-01-25T00:22:34.122Z,14.13
2023-01-25T00:25:00.865Z,14.68
2023-01-25T00:27:30.676Z,14.45
2023-01-25T00:29:57.469Z,14.57
2023-01-25T00:32:24.388Z,14.27
2023-01-25T00:34:52.275Z,14.73
2023-01-25T00:37:40.377Z,15.02
2023-01-25T00:40:09.126Z,13.73
2023-01-25T00:42:35.893Z,14.27
2023-01-25T00:45:02.932Z,14.97
2023-01-25T00:47:29.589Z,15.13
2023-01-25T00:49:56.315Z,16.25
2023-01-25T00:52:23.094Z,14.32
2023-01-25T00:54:49.822Z,14.50
2023-01-25T00:57:16.643Z,14.03
2023-01-25T00:59:44.705Z,13.63
2023-01-25T01:02:12.286Z,14.20
2023-01-25T01:04:39.090Z,12.98
2023-01-25T01:07:05.944Z,11.80
2023-01-25T01:09:33.001Z,13.77
2023-01-25T01:11:59.743Z,14.32
2023-01-25T01:14:26.495Z,13.85
2023-01-25T01:16:53.255Z,14.18
2023-01-25T01:19:20.144Z,13.77
2023-01-25T01:21:46.856Z,14.30
2023-01-25T01:24:13.828Z,15.80
2023-01-25T01:26:40.644Z,19.00
2023-01-25T01:29:07.527Z,17.08
2023-01-25T01:31:34.788Z,15.18
2023-01-25T01:34:01.985Z,15.20
2023-01-25T01:36:30.890Z,14.32
2023-01-25T01:38:59.460Z,13.93
2023-01-25T01:41:26.830Z,14.88
2023-01-25T01:43:53.753Z,13.75
2023-01-25T01:46:35.180Z,13.90
2023-01-25T01:49:05.855Z,14.75
2023-01-25T01:51:52.669Z,14.52
2023-01-25T01:54:43.162Z,14.60
2023-01-25T01:57:24.940Z,14.57
2023-01-25T01:59:59.349Z,14.27
2023-01-25T02:02:26.903Z,14.40
2023-01-25T02:04:57.328Z,14.48
2023-01-25T02:07:35.721Z,14.57
2023-01-25T02:10:05.822Z,14.70
2023-01-25T02:12:33.038Z,13.70
2023-01-25T02:14:59.784Z,13.48
2023-01-25T02:17:33.814Z,15.32
2023-01-25T02:20:09.676Z,15.10
2023-01-25T02:22:59.974Z,15.48
2023-01-25T02:25:28.145Z,14.00
2023-01-25T02:28:08.874Z,14.38
2023-01-25T02:30:35.703Z,14.32
2023-01-25T02:33:02.442Z,14.55
2023-01-25T02:35:51.406Z,14.13
2023-01-25T02:38:21.149Z,13.90
2023-01-25T02:41:34.365Z,13.93
2023-01-25T02:44:04.501Z,13.98
2023-01-25T02:46:33.856Z,14.15
2023-01-25T02:49:01.216Z,14.10
2023-01-25T02:51:30.785Z,14.77
2023-01-25T02:53:57.928Z,13.90
2023-01-25T02:56:25.453Z,14.50
2023-01-25T02:58:52.234Z,14.80
2023-01-25T03:01:19.502Z,15.20
2023-01-25T03:03:46.263Z,14.23
2023-01-25T03:06:13.090Z,14.25
2023-01-25T03:08:39.786Z,14.27
2023-01-25T03:11:07.639Z,15.10
2023-01-25T03:13:35.738Z,14.75
2023-01-25T03:16:09.068Z,14.13
2023-01-25T03:18:36.423Z,14.70
2023-01-25T03:21:10.365Z,14.70
2023-01-25T03:23:37.263Z,13.85
2023-01-25T03:26:10.354Z,14.32
2023-01-25T03:28:38.804Z,14.33
2023-01-25T03:31:06.494Z,14.07
2023-01-25T03:33:33.595Z,14.95
2023-01-25T03:36:00.474Z,14.30
2023-01-25T03:38:28.142Z,13.82
2023-01-25T03:40:54.855Z,13.80
2023-01-25T03:43:22.033Z,14.30
2023-01-25T03:45:57.791Z,14.20
2023-01-25T03:48:25.718Z,14.43
2023-01-25T03:50:54.640Z,14.10
2023-01-25T03:53:29.157Z,14.57
2023-01-25T03:55:58.455Z,14.55
2023-01-25T03:58:25.331Z,14.27
2023-01-25T04:00:55.431Z,13.63
2023-01-25T04:03:22.291Z,14.02
2023-01-25T04:05:49.265Z,13.60
2023-01-25T04:08:16.085Z,14.63
2023-01-25T04:10:43.121Z,13.45
2023-01-25T04:13:10.135Z,14.40
2023-01-25T04:15:37.089Z,14.02
2023-01-25T04:18:03.876Z,13.77
2023-01-25T04:20:30.634Z,15.55
2023-01-25T04:22:57.409Z,14.55
2023-01-25T04:25:24.126Z,14.95
2023-01-25T04:27:52.079Z,15.57
2023-01-25T04:30:19.306Z,14.60
2023-01-25T04:32:46.787Z,14.70
2023-01-25T04:35:13.614Z,15.75
2023-01-25T04:37:40.353Z,15.13
2023-01-25T04:40:09.846Z,15.93
2023-01-25T04:42:36.547Z,15.23
2023-01-25T04:45:03.844Z,14.95
2023-01-25T04:47:30.546Z,16.80
2023-01-25T04:49:57.297Z,15.35
2023-01-25T04:52:24.111Z,15.52
2023-01-25T04:54:50.844Z,15.53
2023-01-25T04:57:17.628Z,16.30
2023-01-25T04:59:44.457Z,16.33
2023-01-25T05:02:11.708Z,17.23
2023-01-25T05:04:38.433Z,17.00
2023-01-25T05:07:05.134Z,15.93
2023-01-25T05:09:31.861Z,17.52
2023-01-25T05:11:58.889Z,16.10
2023-01-25T05:14:25.637Z,16.70
2023-01-25T05:16:52.411Z,16.38
2023-01-25T05:19:19.221Z,16.63
2023-01-25T05:21:58.014Z,15.77
2023-01-25T05:24:30.822Z,16.80
2023-01-25T05:27:01.318Z,16.58
2023-01-25T05:29:28.622Z,16.65
2023-01-25T05:31:55.779Z,16.43
2023-01-25T05:34:22.662Z,16.08
2023-01-25T05:36:49.463Z,17.35
2023-01-25T05:39:16.209Z,16.60
2023-01-25T05:41:43.154Z,16.13
2023-01-25T05:44:10.128Z,17.00
2023-01-25T05:46:36.871Z,16.33
2023-01-25T05:49:03.871Z,16.35
2023-01-25T05:51:30.640Z,17.08
2023-01-25T05:53:57.579Z,18.02
2023-01-25T05:56:24.684Z,17.53
2023-01-25T05:58:55.604Z,17.15
2023-01-25T06:01:22.702Z,17.08
2023-01-25T06:03:49.574Z,16.80
2023-01-25T06:06:16.898Z,16.95
2023-01-25T06:08:44.353Z,16.57
2023-01-25T06:11:13.697Z,16.60
2023-01-25T06:13:41.191Z,17.70
2023-01-25T06:16:08.611Z,16.80
2023-01-25T06:18:36.138Z,16.67
2023-01-25T06:21:04.388Z,17.10
2023-01-25T06:23:31.678Z,16.10
2023-01-25T06:26:00.205Z,18.50
2023-01-25T06:28:27.023Z,17.02
2023-01-25T06:30:53.755Z,17.40
2023-01-25T06:33:20.510Z,17.17
2023-01-25T06:35:47.466Z,16.70
2023-01-25T06:38:21.896Z,17.15
2023-01-25T06:40:48.633Z,16.83
2023-01-25T06:43:15.390Z,16.45
2023-01-25T06:45:42.118Z,16.93
2023-01-25T06:48:08.827Z,16.05
2023-01-25T06:50:35.632Z,17.27
2023-01-25T06:53:02.417Z,17.15
2023-01-25T06:55:29.150Z,16.70
2023-01-25T06:57:55.849Z,16.30
2023-01-25T07:00:23.338Z,16.52
2023-01-25T07:02:50.167Z,16.52
2023-01-25T07:05:17.043Z,16.10
2023-01-25T07:07:46.920Z,15.50
2023-01-25T07:10:14.970Z,15.73
2023-01-25T07:12:41.668Z,16.67
2023-01-25T07:15:09.195Z,15.85
2023-01-25T07:17:36.338Z,16.10
2023-01-25T07:20:03.212Z,15.88
2023-01-25T07:22:30.062Z,16.53
2023-01-25T07:24:58.965Z,16.10
2023-01-25T07:27:25.668Z,16.88
2023-01-25T07:29:52.477Z,16.15
2023-01-25T07:32:19.161Z,16.38
2023-01-25T07:34:45.930Z,16.03
2023-01-25T07:37:12.876Z,15.98
2023-01-25T07:51:24.177Z,16.10
2023-01-25T07:53:56.851Z,18.27
2023-01-25T07:56:38.461Z,18.00
2023-01-25T08:01:27.057Z,15.80
2023-01-25T08:02:39.856Z,16.03
2023-01-25T08:08:23.055Z,13.52
2023-01-25T08:14:33.378Z,18.33
2023-01-25T08:18:08.105Z,19.70
2023-01-25T08:20:09.350Z,15.00
2023-01-25T08:22:36.453Z,13.80
2023-01-25T08:25:11.973Z,14.07
2023-01-25T08:27:41.242Z,14.48
2023-01-25T08:30:09.962Z,15.33
2023-01-25T08:32:38.063Z,14.07
2023-01-25T08:35:07.431Z,16.20
2023-01-25T08:37:34.528Z,15.02
2023-01-25T08:40:04.412Z,16.33
2023-01-25T08:42:31.266Z,16.03
2023-01-25T08:44:58.143Z,17.40
2023-01-25T08:51:17.289Z,16.42
2023-01-25T08:57:26.065Z,14.47
2023-01-25T09:03:36.802Z,17.73
2023-01-25T09:06:37.240Z,16.45
2023-01-25T09:13:00.452Z,16.77
2023-01-25T09:16:26.344Z,15.30
2023-01-25T09:19:40.116Z,12.80
2023-01-25T09:30:22.178Z,12.87
2023-01-25T09:34:17.595Z,15.05
2023-01-25T09:44:26.690Z,14.63
2023-01-25T09:47:25.952Z,15.37
2023-01-25T09:50:52.644Z,11.50
2023-01-25T09:53:35.506Z,19.13
2023-01-25T09:56:13.582Z,16.88
2023-01-25T09:58:46.115Z,19.58
2023-01-25T10:01:38.190Z,10.37
2023-01-25T10:04:24.234Z,16.50
2023-01-25T10:07:00.895Z,17.20
2023-01-25T10:09:46.321Z,18.42
2023-01-25T10:12:21.195Z,19.70
2023-01-25T10:14:51.115Z,16.87
2023-01-25T10:17:28.847Z,17.90
2023-01-25T10:20:07.063Z,17.63
2023-01-25T10:23:04.692Z,17.58
2023-01-25T10:25:47.149Z,18.45
2023-01-25T10:28:45.947Z,17.40
2023-01-25T10:31:24.051Z,17.45
2023-01-25T10:34:03.135Z,19.50
2023-01-25T10:36:56.038Z,17.52
2023-01-25T10:39:34.731Z,17.92
2023-01-25T10:42:21.363Z,20.53
2023-01-25T10:44:56.880Z,18.08
2023-01-25T10:47:35.064Z,18.13
2023-01-25T10:50:01.983Z,16.85
2023-01-25T10:52:37.376Z,14.40
2023-01-25T10:55:27.604Z,17.13
2023-01-25T10:58:06.140Z,17.17
2023-01-25T11:00:41.803Z,17.70
2023-01-25T11:03:26.901Z,17.25
2023-01-25T11:06:00.976Z,17.02
2023-01-25T11:08:42.833Z,16.47
2023-01-25T11:14:27.633Z,16.17
2023-01-25T11:16:57.527Z,16.92
2023-01-25T11:19:28.779Z,17.38
2023-01-25T11:21:59.771Z,16.73
2023-01-25T11:24:29.820Z,18.95
2023-01-25T11:27:24.356Z,18.45
2023-01-25T11:30:21.626Z,17.88
2023-01-25T11:32:54.071Z,17.35
2023-01-25T11:35:37.725Z,20.00
2023-01-25T11:38:19.705Z,19.42
2023-01-25T11:41:03.612Z,19.63
2023-01-25T11:43:57.875Z,20.23
2023-01-25T11:46:41.666Z,20.48
2023-01-25T11:49:37.557Z,21.40
2023-01-25T11:52:13.907Z,21.73
2023-01-25T11:55:03.215Z,22.10
2023-01-25T11:57:52.231Z,21.30
2023-01-25T12:00:59.406Z,20.73
2023-01-25T12:04:05.590Z,20.17
2023-01-25T12:06:38.435Z,19.67
2023-01-25T12:09:39.461Z,21.75
2023-01-25T12:12:44.707Z,23.63
2023-01-25T12:15:44.800Z,21.73
2023-01-25T12:18:20.640Z,23.17
2023-01-25T12:21:13.386Z,22.90
2023-01-25T12:23:51.303Z,21.13
2023-01-25T12:26:24.553Z,21.05
2023-01-25T12:28:57.731Z,22.75
2023-01-25T12:31:42.559Z,22.47
2023-01-25T12:34:25.238Z,21.90
2023-01-25T12:36:52.161Z,22.63
2023-01-25T12:39:40.200Z,22.65
2023-01-25T12:42:43.276Z,23.02
2023-01-25T12:45:22.588Z,21.90
2023-01-25T12:48:01.491Z,20.67
2023-01-25T12:50:54.435Z,21.27
2023-01-25T12:53:55.904Z,20.85
2023-01-25T12:56:45.167Z,20.65
2023-01-25T12:59:23.856Z,19.60
2023-01-25T13:02:28.112Z,20.35
2023-01-25T13:05:21.850Z,20.42
2023-01-25T13:07:54.609Z,19.45
2023-01-25T13:10:27.877Z,19.50
2023-01-25T13:13:21.970Z,21.13
2023-01-25T13:15:49.100Z,21.23
2023-01-25T13:18:24.933Z,22.52
2023-01-25T13:20:54.324Z,25.00
2023-01-25T13:23:48.001Z,23.27
2023-01-25T13:26:28.396Z,20.17
2023-01-25T13:28:58.081Z,19.05
2023-01-25T13:31:51.435Z,19.65
2023-01-25T13:34:39.013Z,19.75
2023-01-25T13:37:25.870Z,19.67
2023-01-25T13:40:10.329Z,20.67
2023-01-25T13:42:39.529Z,20.10
2023-01-25T13:45:20.860Z,19.05
2023-01-25T13:48:16.740Z,19.83
2023-01-25T13:50:48.785Z,19.95
2023-01-25T13:53:15.456Z,19.67
2023-01-25T13:55:47.510Z,23.38
2023-01-25T13:58:28.457Z,22.75
2023-01-25T14:01:06.616Z,22.77
2023-01-25T14:03:47.833Z,20.65
2023-01-25T14:06:39.473Z,19.80
2023-01-25T14:09:20.748Z,20.67
2023-01-25T14:12:02.308Z,18.92
2023-01-25T14:14:34.992Z,19.13
2023-01-25T14:17:04.582Z,19.08
2023-01-25T14:19:32.025Z,21.90
2023-01-25T14:22:17.555Z,21.80
2023-01-25T14:24:44.323Z,21.20
2023-01-25T14:27:15.439Z,22.20
2023-01-25T14:29:47.748Z,18.05
2023-01-25T14:32:20.705Z,19.77
2023-01-25T14:34:47.439Z,18.58
2023-01-25T14:37:22.858Z,18.42
2023-01-25T14:39:51.782Z,19.38
2023-01-25T14:42:19.048Z,19.27
2023-01-25T14:44:46.282Z,18.17
2023-01-25T14:47:30.816Z,18.55
2023-01-25T14:50:31.501Z,18.38
2023-01-25T14:53:00.701Z,16.92
2023-01-25T14:55:27.537Z,18.02
2023-01-25T14:58:00.872Z,17.70
2023-01-25T15:00:32.137Z,17.60
2023-01-25T15:03:06.032Z,18.25
2023-01-25T15:05:37.288Z,17.50
2023-01-25T15:08:07.100Z,17.55
2023-01-25T15:10:36.825Z,17.03
2023-01-25T15:13:14.599Z,19.85
2023-01-25T15:15:51.395Z,19.10
2023-01-25T15:18:40.691Z,18.65
2023-01-25T15:21:18.822Z,16.45
2023-01-25T15:23:47.779Z,17.80
2023-01-25T15:26:19.616Z,18.17
2023-01-25T15:28:47.246Z,19.73
2023-01-25T15:31:28.938Z,17.45
2023-01-25T15:33:59.453Z,12.77
2023-01-25T15:36:27.037Z,17.27
2023-01-25T15:38:54.134Z,18.15
2023-01-25T15:41:21.331Z,18.67
2023-01-25T15:43:48.871Z,17.55
2023-01-25T15:46:27.734Z,18.48
2023-01-25T15:48:54.850Z,17.93
2023-01-25T15:51:22.372Z,17.90
2023-01-25T15:53:49.358Z,18.58
2023-01-25T15:56:18.406Z,18.08
2023-01-25T15:58:51.706Z,18.15
2023-01-25T16:01:18.958Z,19.53
2023-01-25T16:03:45.992Z,18.27
2023-01-25T16:06:36.435Z,19.05
2023-01-25T16:09:15.614Z,17.92
2023-01-25T16:11:43.359Z,18.88
2023-01-25T16:14:10.253Z,18.40
2023-01-25T16:16:49.781Z,17.40
2023-01-25T16:19:20.545Z,18.15
2023-01-25T16:21:47.442Z,18.23
2023-01-25T16:24:14.762Z,17.63
2023-01-25T16:26:53.440Z,18.23
2023-01-25T16:29:21.675Z,18.35
2023-01-25T16:31:48.553Z,18.10
2023-01-25T16:34:15.389Z,16.92
2023-01-25T16:36:42.341Z,16.88
2023-01-25T16:39:21.326Z,17.10
2023-01-25T16:41:49.216Z,18.48
2023-01-25T16:44:16.585Z,18.33
2023-01-25T16:46:43.901Z,18.33
2023-01-25T16:49:26.528Z,19.58
2023-01-25T16:51:54.836Z,18.10
2023-01-25T16:54:22.164Z,17.88
2023-01-25T16:56:50.049Z,17.25
2023-01-25T16:59:17.763Z,18.40
2023-01-25T17:01:45.384Z,18.08
2023-01-25T17:04:13.036Z,17.80
2023-01-25T17:06:50.174Z,19.52
2023-01-25T17:09:24.938Z,20.70
2023-01-25T17:11:53.149Z,19.08
2023-01-25T17:14:20.419Z,19.92
2023-01-25T17:16:50.335Z,19.10
2023-01-25T17:19:17.729Z,19.75
2023-01-25T17:21:45.070Z,20.83
2023-01-25T17:24:17.697Z,19.15
2023-01-25T17:26:44.832Z,20.13
2023-01-25T17:29:12.072Z,20.67
2023-01-25T17:31:41.309Z,21.67
2023-01-25T17:34:10.903Z,20.50
2023-01-25T17:36:37.645Z,20.92
2023-01-25T17:39:06.101Z,23.17
2023-01-25T17:41:33.524Z,20.37
2023-01-25T17:44:00.286Z,20.35
2023-01-25T17:46:34.547Z,20.70
2023-01-25T17:49:03.266Z,20.48
2023-01-25T17:51:32.601Z,19.45
2023-01-25T17:53:59.761Z,21.77
2023-01-25T17:56:27.210Z,21.25
2023-01-25T17:58:54.455Z,21.55
2023-01-25T18:01:24.255Z,21.65
2023-01-25T18:03:53.336Z,22.35
2023-01-25T18:06:22.692Z,23.20
2023-01-25T18:08:50.920Z,24.35
2023-01-25T18:11:21.063Z,22.92
2023-01-25T18:13:49.892Z,21.58
2023-01-25T18:16:18.299Z,22.67
2023-01-25T18:18:45.910Z,20.87
2023-01-25T18:21:16.500Z,23.10
2023-01-25T18:23:47.230Z,24.13
2023-01-25T18:26:31.872Z,23.80
2023-01-25T18:29:02.718Z,24.15
2023-01-25T18:31:29.668Z,23.37
2023-01-25T18:33:58.184Z,23.05
2023-01-25T18:36:25.289Z,23.92
2023-01-25T18:38:52.197Z,24.00
2023-01-25T18:41:19.072Z,22.35
2023-01-25T18:43:49.170Z,25.30
2023-01-25T18:46:16.001Z,23.67
2023-01-25T18:48:45.484Z,22.70
2023-01-25T18:51:14.113Z,23.27
2023-01-25T18:53:42.370Z,23.08
2023-01-25T18:56:15.112Z,22.97
2023-01-25T18:58:42.542Z,22.33
2023-01-25T19:01:21.140Z,23.38
2023-01-25T19:03:49.229Z,23.75
2023-01-25T19:06:17.524Z,23.58
2023-01-25T19:08:49.534Z,20.90
2023-01-25T19:11:21.990Z,22.00
2023-01-25T19:13:49.374Z,22.02
2023-01-25T19:16:19.714Z,23.77
2023-01-25T19:18:49.895Z,22.08
2023-01-25T19:21:21.805Z,22.97
2023-01-25T19:23:48.751Z,22.27
2023-01-25T19:26:18.207Z,23.83
2023-01-25T19:28:45.964Z,21.67
2023-01-25T19:31:18.512Z,24.02
2023-01-25T19:33:47.845Z,23.47
2023-01-25T19:36:21.737Z,24.27
2023-01-25T19:38:49.617Z,23.48
2023-01-25T19:41:24.856Z,23.45
2023-01-25T19:43:59.995Z,23.08
2023-01-25T19:46:31.733Z,23.50
2023-01-25T19:48:59.924Z,23.20
2023-01-25T19:51:28.473Z,22.52
2023-01-25T19:54:06.335Z,22.23
2023-01-25T19:56:36.584Z,24.83
2023-01-25T19:59:13.517Z,24.20
2023-01-25T20:01:43.974Z,23.17
2023-01-25T20:04:20.085Z,23.75
2023-01-25T20:06:47.905Z,24.55
2023-01-25T20:09:17.299Z,25.80
2023-01-25T20:11:45.993Z,24.93
2023-01-25T20:14:13.711Z,25.40
2023-01-25T20:16:40.610Z,25.50
2023-01-25T20:19:10.493Z,26.30
2023-01-25T20:21:39.851Z,25.33
2023-01-25T20:24:08.722Z,25.53
2023-01-25T20:26:38.912Z,25.70
2023-01-25T20:29:07.235Z,25.08
2023-01-25T20:31:43.595Z,25.42
2023-01-25T20:34:15.915Z,25.65
2023-01-25T20:36:43.668Z,24.73
2023-01-25T20:39:13.775Z,25.13
2023-01-25T20:41:40.689Z,25.83
2023-01-25T20:44:08.734Z,27.38
2023-01-25T20:46:40.750Z,26.13
2023-01-25T20:49:09.724Z,23.53
2023-01-25T20:51:45.877Z,25.42
2023-01-25T20:54:13.186Z,26.45
2023-01-25T20:56:48.499Z,25.75
2023-01-25T20:59:16.610Z,24.85
2023-01-25T21:01:43.489Z,26.37
2023-01-25T21:04:11.571Z,23.77
2023-01-25T21:06:38.832Z,24.52
2023-01-25T21:09:17.213Z,25.75
2023-01-25T21:11:49.775Z,24.75
2023-01-25T21:14:17.063Z,25.77
2023-01-25T21:16:43.978Z,24.65
2023-01-25T21:19:10.891Z,26.63
2023-01-25T21:21:38.605Z,25.65
2023-01-25T21:24:10.063Z,26.98
2023-01-25T21:26:39.530Z,25.73
2023-01-25T21:32:30.391Z,24.50
2023-01-25T22:33:57.732Z,22.73
2023-01-25T22:36:26.778Z,22.83
2023-01-25T22:38:53.559Z,23.57
2023-01-25T22:41:25.974Z,23.23
2023-01-25T22:43:54.015Z,23.40
2023-01-25T22:46:25.015Z,23.17
2023-01-25T22:48:51.960Z,22.20
2023-01-25T22:51:22.931Z,22.03
2023-01-25T22:53:50.874Z,22.35
2023-01-25T22:56:19.962Z,23.08
2023-01-25T22:58:48.324Z,21.13
2023-01-25T23:01:18.097Z,22.17
2023-01-25T23:03:45.222Z,20.47
2023-01-25T23:06:20.072Z,20.42
2023-01-25T23:08:47.436Z,19.25
2023-01-25T23:11:21.985Z,20.25
2023-01-25T23:14:17.755Z,20.20
2023-01-25T23:16:47.111Z,19.57
2023-01-25T23:19:14.733Z,20.55
2023-01-25T23:25:25.763Z,19.88
2023-01-25T23:31:34.659Z,18.83
2023-01-25T23:34:03.467Z,19.98
2023-01-25T23:36:32.654Z,20.38
2023-01-25T23:38:59.974Z,17.90
2023-01-25T23:41:28.848Z,19.45
2023-01-25T23:43:56.202Z,18.10
2023-01-25T23:46:24.115Z,19.08
2023-01-25T23:48:51.142Z,17.77
2023-01-25T23:51:18.968Z,18.40
2023-01-25T23:53:46.124Z,17.67
2023-01-25T23:56:18.612Z,16.93
